createdAt,value
2022-12-23T00:01:00.989Z,96.10
2022-12-23T00:03:28.152Z,96.10
2022-12-23T00:05:54.863Z,96.10
2022-12-23T00:08:21.889Z,96.20
2022-12-23T00:10:49.403Z,96.30
2022-12-23T00:13:16.400Z,96.30
2022-12-23T00:15:43.003Z,96.20
2022-12-23T00:18:09.668Z,96.20
2022-12-23T00:20:36.376Z,96.30
2022-12-23T00:23:03.082Z,96.30
2022-12-23T00:25:29.719Z,96.20
2022-12-23T00:27:56.383Z,96.10
2022-12-23T00:30:23.109Z,96.20
2022-12-23T00:32:49.810Z,96.20
2022-12-23T00:35:16.509Z,96.20
2022-12-23T00:37:43.243Z,96.20
2022-12-23T00:40:12.861Z,96.10
2022-12-23T00:42:39.531Z,96.10
2022-12-23T00:45:06.526Z,96.10
2022-12-23T00:47:33.118Z,96.20
2022-12-23T00:49:59.758Z,96.10
2022-12-23T00:52:26.408Z,96.20
2022-12-23T00:54:53.066Z,96.20
2022-12-23T00:57:19.735Z,96.10
2022-12-23T00:59:46.411Z,96.20
2022-12-23T01:02:13.202Z,96.20
2022-12-23T01:04:39.984Z,96.20
2022-12-23T01:07:06.742Z,96.20
2022-12-23T01:09:33.799Z,96.30
2022-12-23T01:12:00.520Z,96.20
2022-12-23T01:14:27.251Z,96.20
2022-12-23T01:16:53.981Z,96.30
2022-12-23T01:19:20.684Z,96.30
2022-12-23T01:21:47.355Z,96.30
2022-12-23T01:24:14.090Z,96.30
2022-12-23T01:26:40.762Z,96.30
2022-12-23T01:29:07.440Z,96.30
2022-12-23T01:31:34.205Z,96.30
2022-12-23T01:34:00.907Z,96.30
2022-12-23T01:36:27.542Z,96.30
2022-12-23T01:38:55.952Z,96.30
2022-12-23T01:41:25.315Z,96.30
2022-12-23T01:43:52.225Z,96.30
2022-12-23T01:46:18.958Z,96.30
2022-12-23T01:48:48.151Z,96.30
2022-12-23T01:51:25.876Z,96.30
2022-12-23T01:53:54.849Z,96.30
2022-12-23T01:56:30.328Z,96.40
2022-12-23T01:59:09.996Z,96.40
2022-12-23T02:01:36.801Z,96.40
2022-12-23T02:04:06.699Z,96.40
2022-12-23T02:06:34.491Z,96.30
2022-12-23T02:09:01.223Z,96.40
2022-12-23T02:11:57.965Z,96.60
2022-12-23T02:14:57.761Z,96.50
2022-12-23T02:17:32.457Z,96.40
2022-12-23T02:20:18.715Z,96.40
2022-12-23T02:23:22.798Z,96.40
2022-12-23T02:25:52.479Z,96.20
2022-12-23T02:28:57.894Z,96.30
2022-12-23T02:31:34.333Z,96.30
2022-12-23T02:34:05.187Z,96.30
2022-12-23T02:36:39.081Z,96.20
2022-12-23T02:39:08.926Z,96.20
2022-12-23T02:41:41.369Z,96.10
2022-12-23T02:44:43.114Z,96.20
2022-12-23T02:47:24.413Z,96.20
2022-12-23T02:49:53.500Z,96.20
2022-12-23T02:52:21.853Z,96.20
2022-12-23T02:54:57.471Z,96.30
2022-12-23T02:57:26.452Z,96.30
2022-12-23T02:59:53.135Z,96.40
2022-12-23T03:02:20.046Z,96.40
2022-12-23T03:04:46.828Z,96.40
2022-12-23T03:07:18.932Z,96.40
2022-12-23T03:09:54.901Z,96.50
2022-12-23T03:12:41.808Z,96.40
2022-12-23T03:15:33.699Z,96.30
2022-12-23T03:18:26.251Z,96.40
2022-12-23T03:20:57.192Z,96.30
2022-12-23T03:23:32.513Z,96.30
2022-12-23T03:26:19.176Z,96.30
2022-12-23T03:29:12.738Z,96.30
2022-12-23T03:31:39.446Z,96.20
2022-12-23T03:34:09.022Z,96.20
2022-12-23T03:36:42.071Z,96.20
2022-12-23T03:39:12.992Z,96.10
2022-12-23T03:41:42.593Z,96.10
2022-12-23T03:44:13.655Z,96.10
2022-12-23T03:46:43.456Z,96.10
2022-12-23T03:49:11.850Z,96.10
2022-12-23T03:51:49.119Z,96.10
2022-12-23T03:54:19.251Z,96.20
2022-12-23T03:56:48.293Z,96.20
2022-12-23T03:59:19.769Z,96.20
2022-12-23T04:02:04.827Z,96.20
2022-12-23T04:04:50.888Z,96.20
2022-12-23T04:07:38.862Z,96.20
2022-12-23T04:10:05.863Z,96.20
2022-12-23T04:12:32.473Z,96.20
2022-12-23T04:14:59.214Z,96.20
2022-12-23T04:17:25.884Z,96.20
2022-12-23T04:19:53.616Z,96.20
2022-12-23T04:22:20.300Z,96.20
2022-12-23T04:24:46.913Z,96.20
2022-12-23T04:27:14.175Z,96.10
2022-12-23T04:29:40.829Z,96.10
2022-12-23T04:32:07.742Z,96.20
2022-12-23T04:34:34.500Z,96.30
2022-12-23T04:37:01.251Z,96.20
2022-12-23T04:39:27.864Z,96.20
2022-12-23T04:41:54.523Z,96.20
2022-12-23T04:44:21.185Z,96.10
2022-12-23T04:46:47.947Z,96.10
2022-12-23T04:49:52.096Z,96.20
2022-12-23T04:52:18.762Z,96.20
2022-12-23T04:54:46.450Z,96.30
2022-12-23T04:57:18.455Z,96.30
2022-12-23T04:59:47.366Z,96.30
2022-12-23T05:02:33.732Z,96.30
2022-12-23T05:05:14.885Z,96.40
2022-12-23T05:07:41.512Z,96.40
2022-12-23T05:10:22.332Z,96.40
2022-12-23T05:12:48.980Z,96.30
2022-12-23T05:15:15.654Z,96.30
2022-12-23T05:17:42.255Z,96.40
2022-12-23T05:20:09.602Z,96.40
2022-12-23T05:22:41.557Z,96.40
2022-12-23T05:25:08.884Z,96.40
2022-12-23T05:27:36.397Z,96.40
2022-12-23T05:30:03.737Z,96.40
2022-12-23T05:32:30.335Z,96.40
2022-12-23T05:34:56.971Z,96.40
2022-12-23T05:37:23.752Z,96.40
2022-12-23T05:39:50.374Z,96.40
2022-12-23T05:42:17.033Z,96.30
2022-12-23T05:44:43.705Z,96.30
2022-12-23T05:47:10.323Z,96.30
2022-12-23T05:49:36.894Z,96.40
2022-12-23T05:52:03.583Z,96.40
2022-12-23T05:54:30.210Z,96.30
2022-12-23T05:56:56.781Z,96.30
2022-12-23T05:59:26.485Z,96.30
2022-12-23T06:01:57.526Z,96.30
2022-12-23T06:04:24.659Z,96.30
2022-12-23T06:06:51.361Z,96.30
2022-12-23T06:09:18.285Z,96.40
2022-12-23T06:11:44.925Z,96.40
2022-12-23T06:14:11.721Z,96.50
2022-12-23T06:16:38.765Z,96.40
2022-12-23T06:19:05.499Z,96.40
2022-12-23T06:21:32.328Z,96.50
2022-12-23T06:24:00.584Z,96.50
2022-12-23T06:26:27.195Z,96.40
2022-12-23T06:28:53.874Z,96.40
2022-12-23T06:31:20.555Z,96.40
2022-12-23T06:33:47.310Z,96.40
2022-12-23T06:36:13.996Z,96.50
2022-12-23T06:38:40.757Z,96.40
2022-12-23T06:41:07.364Z,96.40
2022-12-23T06:43:34.049Z,96.40
2022-12-23T06:46:00.803Z,96.50
2022-12-23T06:48:27.560Z,96.50
2022-12-23T06:50:54.223Z,96.50
2022-12-23T06:53:21.057Z,96.60
2022-12-23T06:55:47.926Z,96.60
2022-12-23T06:58:14.679Z,96.60
2022-12-23T07:00:41.436Z,96.60
2022-12-23T07:03:08.403Z,96.50
2022-12-23T07:05:37.737Z,96.40
2022-12-23T07:08:05.202Z,96.40
2022-12-23T07:10:31.925Z,96.40
2022-12-23T07:12:58.658Z,96.40
2022-12-23T07:15:25.331Z,96.30
2022-12-23T07:17:51.934Z,96.30
2022-12-23T07:20:18.940Z,96.20
2022-12-23T07:22:48.997Z,96.20
2022-12-23T07:25:15.999Z,96.20
2022-12-23T07:28:13.277Z,96.30
2022-12-23T07:31:11.719Z,96.20
2022-12-23T07:33:38.557Z,96.10
2022-12-23T07:39:22.844Z,96.10
2022-12-23T07:42:24.954Z,96.10
2022-12-23T07:45:00.804Z,96.10
2022-12-23T07:47:38.717Z,96.00
2022-12-23T07:50:17.145Z,95.90
2022-12-23T07:53:16.641Z,95.90
2022-12-23T07:56:35.681Z,95.90
2022-12-23T07:59:09.208Z,95.80
2022-12-23T08:01:56.105Z,95.90
2022-12-23T08:10:14.526Z,95.80
2022-12-23T08:12:43.358Z,95.80
2022-12-23T08:18:28.276Z,95.80
2022-12-23T08:21:32.529Z,95.70
2022-12-23T08:24:38.432Z,95.60
2022-12-23T08:27:28.907Z,95.60
2022-12-23T08:29:55.661Z,95.50
2022-12-23T08:32:26.039Z,95.60
2022-12-23T08:34:53.546Z,95.70
2022-12-23T08:37:21.175Z,95.70
2022-12-23T08:39:47.858Z,95.70
2022-12-23T08:42:15.171Z,95.60
2022-12-23T08:44:42.880Z,95.70
2022-12-23T08:47:09.582Z,95.70
2022-12-23T08:49:36.273Z,95.70
2022-12-23T08:52:05.899Z,95.70
2022-12-23T08:54:33.244Z,95.70
2022-12-23T08:56:59.904Z,95.70
2022-12-23T08:59:26.956Z,95.70
2022-12-23T09:01:53.799Z,95.70
2022-12-23T09:04:20.456Z,95.70
2022-12-23T09:06:47.488Z,95.80
2022-12-23T09:09:14.566Z,95.80
2022-12-23T09:11:41.329Z,95.80
2022-12-23T09:14:09.128Z,95.60
2022-12-23T09:16:36.092Z,95.70
2022-12-23T09:19:02.888Z,95.70
2022-12-23T09:21:29.787Z,95.70
2022-12-23T09:23:59.239Z,95.70
2022-12-23T09:26:29.242Z,95.70
2022-12-23T09:28:56.029Z,95.70
2022-12-23T09:31:22.998Z,95.70
2022-12-23T09:33:51.898Z,95.80
2022-12-23T09:36:18.923Z,95.80
2022-12-23T09:38:46.851Z,95.80
2022-12-23T09:41:22.151Z,95.80
2022-12-23T09:44:02.366Z,95.90
2022-12-23T09:46:29.062Z,95.80
2022-12-23T09:49:13.234Z,95.80
2022-12-23T09:51:39.968Z,95.70
2022-12-23T09:54:16.904Z,95.80
2022-12-23T09:57:27.439Z,95.90
2022-12-23T09:59:59.826Z,95.80
2022-12-23T10:02:39.140Z,95.80
2022-12-23T10:05:18.719Z,95.80
2022-12-23T10:07:57.731Z,95.80
2022-12-23T10:10:28.664Z,95.70
2022-12-23T10:12:58.636Z,95.80
2022-12-23T10:15:29.976Z,95.80
2022-12-23T10:17:59.192Z,95.80
2022-12-23T10:20:35.389Z,95.80
2022-12-23T10:23:02.049Z,95.80
2022-12-23T10:25:41.271Z,95.70
2022-12-23T10:28:09.730Z,95.70
2022-12-23T10:31:05.634Z,95.60
2022-12-23T10:33:39.171Z,95.70
2022-12-23T10:36:20.064Z,95.70
2022-12-23T10:39:09.566Z,95.70
2022-12-23T10:41:52.397Z,95.60
2022-12-23T10:44:33.369Z,95.60
2022-12-23T10:47:06.204Z,95.50
2022-12-23T10:50:10.529Z,95.40
2022-12-23T10:52:38.193Z,95.40
2022-12-23T10:55:05.317Z,95.30
2022-12-23T10:57:32.116Z,95.30
2022-12-23T10:59:58.744Z,95.40
2022-12-23T11:02:35.702Z,95.40
2022-12-23T11:05:02.406Z,95.50
2022-12-23T11:07:46.090Z,95.50
2022-12-23T11:10:23.669Z,95.50
2022-12-23T11:12:51.988Z,95.40
2022-12-23T11:15:40.477Z,95.40
2022-12-23T11:18:14.169Z,95.50
2022-12-23T11:20:42.458Z,95.50
2022-12-23T11:23:27.100Z,95.60
2022-12-23T11:26:04.818Z,95.50
2022-12-23T11:28:31.595Z,95.60
2022-12-23T11:31:03.705Z,95.50
2022-12-23T11:33:32.545Z,95.50
2022-12-23T11:36:08.899Z,95.50
2022-12-23T11:38:36.309Z,95.60
2022-12-23T11:41:04.925Z,95.60
2022-12-23T11:43:31.805Z,95.70
2022-12-23T11:46:24.928Z,95.80
2022-12-23T11:49:06.394Z,95.90
2022-12-23T11:51:33.074Z,95.90
2022-12-23T11:54:01.373Z,96.00
2022-12-23T11:56:28.514Z,96.00
2022-12-23T11:59:05.014Z,96.10
2022-12-23T12:01:31.908Z,96.00
2022-12-23T12:04:01.579Z,96.00
2022-12-23T12:06:28.317Z,96.10
2022-12-23T12:08:56.863Z,96.20
2022-12-23T12:11:39.953Z,96.30
2022-12-23T12:14:07.482Z,96.30
2022-12-23T12:16:44.068Z,96.20
2022-12-23T12:19:14.754Z,96.30
2022-12-23T12:21:41.456Z,96.20
2022-12-23T12:24:19.892Z,96.30
2022-12-23T12:26:49.004Z,96.30
2022-12-23T12:29:18.741Z,96.30
2022-12-23T12:31:48.861Z,96.30
2022-12-23T12:34:49.885Z,96.30
2022-12-23T12:37:25.222Z,96.40
2022-12-23T12:40:01.851Z,96.30
2022-12-23T12:42:40.950Z,96.20
2022-12-23T12:45:17.912Z,96.20
2022-12-23T12:47:56.031Z,96.30
2022-12-23T12:50:29.842Z,96.50
2022-12-23T12:52:59.210Z,96.50
2022-12-23T12:55:29.842Z,96.40
2022-12-23T12:57:56.579Z,96.30
2022-12-23T13:00:23.829Z,96.40
2022-12-23T13:03:12.312Z,96.30
2022-12-23T13:06:36.585Z,96.30
2022-12-23T13:09:21.853Z,96.20
2022-12-23T13:12:09.792Z,96.30
2022-12-23T13:14:52.406Z,96.20
2022-12-23T13:17:38.462Z,96.30
2022-12-23T13:20:23.090Z,96.40
2022-12-23T13:22:50.310Z,96.50
2022-12-23T13:25:21.081Z,96.50
2022-12-23T13:27:57.441Z,96.50
2022-12-23T13:30:26.221Z,96.50
2022-12-23T13:33:02.079Z,96.50
2022-12-23T13:36:05.682Z,96.50
2022-12-23T13:38:35.933Z,96.60
2022-12-23T13:41:18.476Z,96.70
2022-12-23T13:44:02.254Z,96.70
2022-12-23T13:47:08.057Z,96.70
2022-12-23T13:49:43.515Z,96.70
2022-12-23T13:52:20.207Z,96.70
2022-12-23T13:55:02.203Z,96.80
2022-12-23T13:57:44.696Z,96.80
2022-12-23T14:00:17.299Z,96.80
2022-12-23T14:02:59.126Z,96.70
2022-12-23T14:05:37.937Z,96.70
2022-12-23T14:08:14.635Z,96.60
2022-12-23T14:10:41.340Z,96.70
2022-12-23T14:13:08.404Z,96.70
2022-12-23T14:15:45.048Z,96.80
2022-12-23T14:18:32.667Z,97.20
2022-12-23T14:21:08.277Z,97.20
2022-12-23T14:24:11.197Z,97.30
2022-12-23T14:26:56.395Z,97.20
2022-12-23T14:29:57.486Z,97.70
2022-12-23T14:32:30.014Z,97.70
2022-12-23T14:35:18.243Z,97.90
2022-12-23T14:38:16.153Z,97.80
2022-12-23T14:40:43.010Z,98.00
2022-12-23T14:43:21.947Z,98.30
2022-12-23T14:45:52.728Z,98.00
2022-12-23T14:48:36.932Z,98.00
2022-12-23T14:51:04.112Z,98.00
2022-12-23T14:53:31.617Z,98.00
2022-12-23T14:56:19.719Z,98.00
2022-12-23T14:58:46.309Z,97.90
2022-12-23T15:01:16.714Z,98.10
2022-12-23T15:03:46.304Z,98.20
2022-12-23T15:06:16.064Z,98.10
2022-12-23T15:08:42.622Z,98.10
2022-12-23T15:11:21.616Z,98.50
2022-12-23T15:13:50.898Z,98.40
2022-12-23T15:16:17.883Z,98.30
2022-12-23T15:18:55.074Z,98.50
2022-12-23T15:21:34.359Z,98.30
2022-12-23T15:24:01.084Z,98.20
2022-12-23T15:26:30.782Z,98.10
2022-12-23T15:28:58.318Z,98.10
2022-12-23T15:31:26.359Z,97.90
2022-12-23T15:34:13.253Z,97.80
2022-12-23T15:36:41.494Z,97.70
2022-12-23T15:39:10.030Z,97.60
2022-12-23T15:41:46.837Z,97.50
2022-12-23T15:44:16.255Z,97.50
2022-12-23T15:46:44.786Z,97.40
2022-12-23T15:49:11.813Z,97.40
2022-12-23T15:52:06.236Z,97.40
2022-12-23T15:54:31.748Z,97.20
2022-12-23T15:56:59.445Z,97.10
2022-12-23T15:59:29.120Z,97.00
2022-12-23T16:01:56.048Z,96.90
2022-12-23T16:04:28.228Z,96.80
2022-12-23T16:06:55.232Z,96.70
2022-12-23T16:09:33.985Z,96.50
2022-12-23T16:12:22.330Z,96.30
2022-12-23T16:14:58.922Z,96.00
2022-12-23T16:17:34.884Z,96.00
2022-12-23T16:20:13.800Z,95.80
2022-12-23T16:22:40.606Z,95.40
2022-12-23T16:25:19.378Z,95.30
2022-12-23T16:27:47.189Z,95.10
2022-12-23T16:30:21.341Z,94.60
2022-12-23T16:32:51.010Z,94.70
2022-12-23T16:35:25.619Z,94.50
2022-12-23T16:37:52.700Z,94.00
2022-12-23T16:40:19.974Z,93.10
2022-12-23T16:42:46.609Z,93.60
2022-12-23T16:45:13.305Z,93.90
2022-12-23T16:47:41.495Z,94.10
2022-12-23T16:50:11.774Z,94.00
2022-12-23T16:52:41.441Z,94.00
2022-12-23T16:55:18.613Z,94.10
2022-12-23T16:57:45.521Z,93.90
2022-12-23T17:00:15.859Z,93.60
2022-12-23T17:02:48.493Z,93.30
2022-12-23T17:05:19.348Z,93.60
2022-12-23T17:07:46.138Z,93.50
2022-12-23T17:10:13.555Z,93.30
2022-12-23T17:12:40.351Z,92.90
2022-12-23T17:15:07.456Z,93.10
2022-12-23T17:17:34.204Z,92.60
2022-12-23T17:20:00.842Z,92.50
2022-12-23T17:22:28.734Z,92.70
2022-12-23T17:24:55.460Z,92.40
2022-12-23T17:27:22.261Z,92.40
2022-12-23T17:29:48.880Z,92.80
2022-12-23T17:32:15.524Z,92.50
2022-12-23T17:34:43.255Z,92.70
2022-12-23T17:37:17.144Z,92.10
2022-12-23T17:39:44.206Z,92.00
2022-12-23T17:42:23.330Z,92.00
2022-12-23T17:44:52.027Z,92.00
2022-12-23T17:47:20.297Z,91.90
2022-12-23T17:49:47.509Z,91.90
2022-12-23T17:52:15.696Z,91.80
2022-12-23T17:54:42.800Z,91.60
2022-12-23T17:57:23.223Z,91.70
2022-12-23T17:59:53.756Z,91.60
2022-12-23T18:02:24.400Z,91.50
2022-12-23T18:04:51.270Z,91.30
2022-12-23T18:07:18.048Z,91.40
2022-12-23T18:09:44.863Z,91.30
2022-12-23T18:12:35.613Z,91.30
2022-12-23T18:15:02.686Z,91.10
2022-12-23T18:17:29.340Z,90.80
2022-12-23T18:19:56.015Z,90.90
2022-12-23T18:22:23.917Z,90.80
2022-12-23T18:24:56.939Z,91.00
2022-12-23T18:27:25.793Z,90.90
2022-12-23T18:29:52.416Z,90.80
2022-12-23T18:32:28.727Z,90.50
2022-12-23T18:34:55.465Z,90.60
2022-12-23T18:37:24.939Z,90.70
2022-12-23T18:39:52.704Z,90.60
2022-12-23T18:42:19.767Z,90.60
2022-12-23T18:44:47.396Z,90.40
2022-12-23T18:47:14.248Z,90.30
2022-12-23T18:49:40.991Z,90.10
2022-12-23T18:52:10.607Z,90.00
2022-12-23T18:54:37.287Z,89.80
2022-12-23T18:57:03.973Z,90.10
2022-12-23T18:59:30.712Z,90.60
2022-12-23T19:01:57.815Z,90.80
2022-12-23T19:04:26.649Z,91.00
2022-12-23T19:06:54.243Z,91.40
2022-12-23T19:09:21.883Z,91.60
2022-12-23T19:11:49.384Z,92.00
2022-12-23T19:14:16.373Z,92.20
2022-12-23T19:16:49.274Z,92.50
2022-12-23T19:19:18.065Z,92.50
2022-12-23T19:21:44.800Z,92.80
2022-12-23T19:24:11.459Z,93.30
2022-12-23T19:26:38.184Z,93.40
2022-12-23T19:29:04.828Z,93.50
2022-12-23T19:31:31.672Z,93.40
2022-12-23T19:33:58.467Z,93.40
2022-12-23T19:36:25.310Z,93.40
2022-12-23T19:38:52.052Z,93.30
2022-12-23T19:41:18.968Z,93.30
2022-12-23T19:43:46.453Z,92.80
2022-12-23T19:46:13.992Z,92.70
2022-12-23T19:48:40.759Z,92.50
2022-12-23T19:51:11.211Z,92.40
2022-12-23T19:53:39.855Z,92.20
2022-12-23T19:56:14.058Z,91.90
2022-12-23T19:58:42.024Z,91.90
2022-12-23T20:01:20.740Z,91.90
2022-12-23T20:03:48.238Z,91.50
2022-12-23T20:06:21.487Z,91.60
2022-12-23T20:08:48.409Z,91.40
2022-12-23T20:11:17.554Z,91.10
2022-12-23T20:13:44.324Z,90.70
2022-12-23T20:16:15.353Z,90.60
2022-12-23T20:18:42.285Z,90.40
2022-12-23T20:21:11.343Z,90.20
2022-12-23T20:23:38.125Z,90.40
2022-12-23T20:26:05.202Z,90.50
2022-12-23T20:28:32.517Z,89.90
2022-12-23T20:31:05.429Z,89.90
2022-12-23T20:33:32.537Z,90.00
2022-12-23T20:35:59.539Z,90.20
2022-12-23T20:38:26.521Z,89.60
2022-12-23T20:40:53.234Z,89.80
2022-12-23T20:43:21.657Z,89.50
2022-12-23T20:45:50.877Z,89.40
2022-12-23T20:48:17.894Z,89.20
2022-12-23T20:50:44.707Z,88.80
2022-12-23T20:53:13.857Z,89.00
2022-12-23T20:55:40.679Z,88.70
2022-12-23T20:58:07.613Z,88.40
2022-12-23T21:00:35.199Z,88.40
2022-12-23T21:03:08.349Z,88.00
2022-12-23T21:05:37.302Z,87.20
2022-12-23T21:08:04.310Z,87.60
2022-12-23T21:10:31.244Z,87.50
2022-12-23T21:12:58.166Z,87.00
2022-12-23T21:15:25.453Z,87.20
2022-12-23T21:17:52.231Z,87.20
2022-12-23T21:20:19.032Z,87.00
2022-12-23T21:22:45.664Z,86.40
2022-12-23T21:25:12.517Z,86.70
2022-12-23T21:27:41.089Z,86.70
2022-12-23T21:30:09.186Z,86.80
2022-12-23T21:32:36.036Z,86.70
2022-12-23T21:35:03.028Z,87.00
2022-12-23T21:37:29.998Z,86.90
2022-12-23T21:39:56.768Z,87.00
2022-12-23T21:42:23.479Z,87.10
2022-12-23T21:45:12.057Z,86.90
2022-12-23T21:47:38.696Z,86.90
2022-12-23T21:50:06.336Z,86.60
2022-12-23T21:52:33.460Z,86.50
2022-12-23T21:55:01.514Z,86.70
2022-12-23T21:57:28.252Z,86.50
2022-12-23T21:59:54.929Z,86.50
2022-12-23T22:02:21.760Z,86.20
2022-12-23T22:04:48.651Z,86.20
2022-12-23T22:07:17.028Z,86.10
2022-12-23T22:09:43.749Z,85.90
2022-12-23T22:12:10.421Z,85.80
2022-12-23T22:14:37.117Z,85.90
2022-12-23T22:17:03.810Z,85.80
2022-12-23T22:19:30.480Z,85.80
2022-12-23T22:21:57.232Z,85.80
2022-12-23T22:24:24.084Z,85.90
2022-12-23T22:26:51.312Z,85.80
2022-12-23T22:29:19.082Z,85.80
2022-12-23T22:31:50.203Z,85.90
2022-12-23T22:34:21.424Z,85.60
2022-12-23T22:36:48.494Z,85.70
2022-12-23T22:39:20.729Z,85.70
2022-12-23T22:45:08.123Z,85.90
2022-12-23T22:47:34.895Z,86.10
2022-12-23T22:50:01.631Z,86.30
2022-12-23T22:52:28.396Z,86.30
2022-12-23T22:54:55.207Z,86.60
2022-12-23T22:57:21.863Z,86.80
2022-12-23T22:59:48.483Z,86.90
2022-12-23T23:02:15.241Z,87.30
2022-12-23T23:04:42.000Z,87.50
2022-12-23T23:07:08.712Z,87.60
2022-12-23T23:09:35.402Z,88.00
2022-12-23T23:12:02.108Z,87.90
2022-12-23T23:14:28.881Z,88.20
2022-12-23T23:16:55.606Z,88.70
2022-12-23T23:19:22.389Z,88.90
2022-12-23T23:21:49.062Z,88.70
2022-12-23T23:24:15.742Z,89.00
2022-12-23T23:26:42.393Z,89.00
2022-12-23T23:29:08.996Z,89.10
2022-12-23T23:31:43.923Z,89.00
2022-12-23T23:34:11.926Z,88.80
2022-12-23T23:36:38.840Z,88.80
2022-12-23T23:39:05.685Z,89.00
2022-12-23T23:41:32.303Z,89.00
2022-12-23T23:43:58.925Z,89.00
2022-12-23T23:46:25.597Z,88.90
2022-12-23T23:48:52.377Z,89.10
2022-12-23T23:51:19.024Z,89.20
2022-12-23T23:53:45.629Z,89.10
2022-12-23T23:56:12.327Z,89.30
2022-12-23T23:58:39.037Z,89.40
